Time;durP1;ratioP1;P1;durP2;ratioP2;P2;SDS_P1;SDS_P2;PMS_P1;PMS_P2;Temp;Humidity;BMP_temperature;BMP_pressure;BME280_temperature;BME280_humidity;BME280_pressure;Samples;Min_cycle;Max_cycle;Signal;HPM_P1;HPM_P2
2022/09/26 00:03:04;;;;;;;12.43;11.12;;;;;;;12.67;98.14;99433.34;2721719;86;21836;-95
2022/09/26 00:07:05;;;;;;;14.83;11.38;;;;;;;12.62;97.16;99426.31;2748013;86;21048;-96
2022/09/26 00:11:09;;;;;;;10.45;9.18;;;;;;;12.55;97.84;99428.78;2748348;86;21071;-95
2022/09/26 00:15:11;;;;;;;12.78;10.40;;;;;;;12.40;98.44;99429.04;2747620;86;21107;-96
2022/09/26 00:19:13;;;;;;;8.30;7.45;;;;;;;12.39;99.10;99420.70;2747398;85;21150;-96
2022/09/26 00:23:15;;;;;;;10.95;9.78;;;;;;;12.27;98.94;99416.14;2722192;86;21035;-96
2022/09/26 00:27:16;;;;;;;10.70;9.23;;;;;;;12.12;100.00;99414.05;2727634;86;21015;-96
2022/09/26 00:31:23;;;;;;;9.45;8.18;;;;;;;12.04;99.85;99410.02;2718246;86;21031;-95
2022/09/26 00:35:24;;;;;;;9.30;8.10;;;;;;;11.92;98.93;99411.22;2737303;86;21055;-95
2022/09/26 00:39:25;;;;;;;11.85;10.65;;;;;;;11.73;98.96;99406.42;2707781;86;21000;-94
2022/09/26 00:43:38;;;;;;;10.38;9.15;;;;;;;11.74;100.00;99409.42;2746856;86;21414;-94
2022/09/26 00:47:58;;;;;;;9.25;7.92;;;;;;;11.77;100.00;99402.45;2746860;86;21118;-92
2022/09/26 00:52:11;;;;;;;10.48;8.15;;;;;;;11.80;100.00;99408.83;2746987;86;21055;-95
2022/09/26 00:56:25;;;;;;;9.78;7.30;;;;;;;11.81;99.90;99406.50;2691012;86;21071;-95
2022/09/26 01:00:27;;;;;;;12.33;11.08;;;;;;;11.75;100.00;99399.11;2732402;86;21059;-95
2022/09/26 01:04:33;;;;;;;10.15;9.05;;;;;;;11.77;100.00;99398.97;2761753;84;21059;-94
2022/09/26 01:08:39;;;;;;;10.05;9.08;;;;;;;11.78;100.00;99393.98;2762299;85;21032;-94
2022/09/26 01:12:42;;;;;;;9.50;8.50;;;;;;;11.75;100.00;99388.97;2751279;85;21011;-94
2022/09/26 01:16:47;;;;;;;12.88;9.63;;;;;;;11.63;100.00;99381.72;2736369;85;21085;-94
2022/09/26 01:21:01;;;;;;;12.47;9.30;;;;;;;11.62;100.00;99378.20;2755917;86;22211;-95
2022/09/26 01:25:41;;;;;;;22.17;9.80;;;;;;;11.69;100.00;99381.09;2758993;85;21161;-96
2022/09/26 01:30:18;;;;;;;10.28;8.95;;;;;;;11.55;100.00;99368.66;2763608;85;21087;-95
2022/09/26 01:34:29;;;;;;;14.50;9.00;;;;;;;11.39;100.00;99363.20;2759708;85;21091;-95
2022/09/26 01:38:50;;;;;;;10.70;8.40;;;;;;;11.40;100.00;99358.25;2761492;85;21043;-95
2022/09/26 01:43:09;;;;;;;11.18;10.08;;;;;;;11.36;100.00;99355.05;2730768;85;21731;-95
2022/09/26 01:47:27;;;;;;;12.13;9.20;;;;;;;11.22;100.00;99348.45;2673567;88;21051;-95
2022/09/26 01:51:37;;;;;;;10.08;8.60;;;;;;;11.23;100.00;99351.45;2664182;88;21132;-95
2022/09/26 01:55:44;;;;;;;13.38;9.75;;;;;;;11.29;100.00;99352.64;2668207;87;21609;-96
2022/09/26 01:59:50;;;;;;;10.28;9.28;;;;;;;11.31;100.00;99353.34;2664384;88;21143;-96
2022/09/26 02:03:56;;;;;;;10.53;8.28;;;;;;;11.35;100.00;99353.86;2666529;87;21040;-95
2022/09/26 02:08:18;;;;;;;8.65;7.80;;;;;;;11.37;99.85;99352.72;2657300;87;21048;-96
2022/09/26 02:12:38;;;;;;;15.83;7.37;;;;;;;11.37;99.44;99345.22;2652125;88;21082;-96
2022/09/26 02:16:47;;;;;;;7.20;6.12;;;;;;;11.32;98.69;99351.51;2647357;88;21111;-96
2022/09/26 02:20:54;;;;;;;8.53;6.78;;;;;;;11.24;98.45;99350.94;2631626;88;21583;-93
2022/09/26 02:24:56;;;;;;;8.03;7.22;;;;;;;11.21;98.63;99346.78;2758780;86;21578;-94
2022/09/26 02:28:58;;;;;;;8.40;7.00;;;;;;;11.25;98.80;99336.16;2762698;86;21083;-94
2022/09/26 02:32:59;;;;;;;10.88;7.90;;;;;;;11.26;98.71;99338.31;2762599;86;21075;-94
2022/09/26 02:37:00;;;;;;;14.03;7.95;;;;;;;11.28;99.40;99330.52;2756159;86;21126;-95
2022/09/26 02:41:27;;;;;;;9.48;8.55;;;;;;;11.32;100.00;99327.55;2756123;86;21050;-94
2022/09/26 02:45:34;;;;;;;7.78;7.08;;;;;;;11.32;100.00;99326.21;2747245;84;21015;-92
2022/09/26 02:49:59;;;;;;;9.10;8.30;;;;;;;11.33;100.00;99325.22;2760821;86;21066;-94
2022/09/26 02:54:18;;;;;;;9.78;8.75;;;;;;;11.30;100.00;99325.05;2746862;84;21051;-95
2022/09/26 02:58:58;;;;;;;9.38;8.28;;;;;;;11.36;100.00;99327.57;2670610;87;21051;-90
2022/09/26 03:03:07;;;;;;;9.43;8.05;;;;;;;11.50;100.00;99319.55;2668140;87;21103;-91
2022/09/26 03:07:13;;;;;;;8.35;7.55;;;;;;;11.66;100.00;99319.62;2669946;87;21119;-94
2022/09/26 03:11:18;;;;;;;;;;;;;;;11.76;100.00;99322.70;2660998;87;21075;-93
2022/09/26 03:15:21;;;;;;;9.30;8.50;;;;;;;11.75;100.00;99313.03;2674310;88;20177;-95
2022/09/26 03:19:30;;;;;;;7.92;6.58;;;;;;;11.71;100.00;99316.50;2671787;88;21527;-95
2022/09/26 03:23:32;;;;;;;8.08;7.30;;;;;;;11.66;100.00;99317.48;2674457;88;21185;-96
2022/09/26 03:27:34;;;;;;;9.70;7.80;;;;;;;11.61;100.00;99322.45;2680293;88;21119;-95
2022/09/26 03:31:36;;;;;;;7.65;6.95;;;;;;;11.75;100.00;99315.19;2681352;88;21072;-94
2022/09/26 03:35:37;;;;;;;8.30;6.95;;;;;;;11.84;100.00;99305.41;2749789;85;21054;-95
2022/09/26 03:39:38;;;;;;;9.68;7.53;;;;;;;11.80;100.00;99297.41;2777104;84;21059;-96
2022/09/26 03:43:42;;;;;;;10.45;9.30;;;;;;;11.84;100.00;99283.61;2737361;86;21043;-96
2022/09/26 03:47:42;;;;;;;13.55;10.95;;;;;;;11.83;100.00;99273.11;2794183;84;21558;-95
2022/09/26 03:51:44;;;;;;;20.48;11.55;;;;;;;11.91;100.00;99273.64;2717306;86;21083;-95
2022/09/26 03:55:45;;;;;;;11.50;9.73;;;;;;;12.05;100.00;99277.56;2770580;85;21062;-94
2022/09/26 03:59:47;;;;;;;11.60;10.50;;;;;;;12.17;100.00;99278.95;2771867;84;21671;-94
2022/09/26 04:03:49;;;;;;;10.35;9.10;;;;;;;12.30;100.00;99279.83;2755091;84;21105;-95
2022/09/26 04:07:50;;;;;;;10.05;8.58;;;;;;;12.34;100.00;99279.83;2715738;86;21024;-95
2022/09/26 04:11:52;;;;;;;12.43;9.93;;;;;;;12.36;100.00;99272.50;2736008;85;21078;-96
2022/09/26 04:15:58;;;;;;;13.40;9.55;;;;;;;12.24;100.00;99273.81;2729781;85;21095;-94
2022/09/26 04:20:00;;;;;;;9.37;8.40;;;;;;;12.12;100.00;99269.28;2669499;87;21529;-93
2022/09/26 04:24:02;;;;;;;9.68;8.65;;;;;;;12.15;100.00;99272.95;2677741;87;21130;-92
2022/09/26 04:28:03;;;;;;;10.20;8.80;;;;;;;12.26;100.00;99268.64;2747745;85;21003;-95
2022/09/26 04:32:04;;;;;;;9.30;8.38;;;;;;;12.43;100.00;99276.20;2679866;87;21051;-95
2022/09/26 04:36:10;;;;;;;12.18;8.73;;;;;;;12.51;100.00;99266.06;2661795;88;21102;-92
2022/09/26 04:40:12;;;;;;;11.45;9.00;;;;;;;12.54;100.00;99258.21;2701173;86;21098;-93
2022/09/26 04:44:14;;;;;;;10.08;8.18;;;;;;;12.67;100.00;99254.58;2681866;87;21094;-94
2022/09/26 04:48:15;;;;;;;8.68;7.22;;;;;;;12.77;100.00;99257.57;2688155;87;21105;-93
2022/09/26 04:52:16;;;;;;;9.38;7.97;;;;;;;12.63;100.00;99262.58;2670861;87;21083;-95
2022/09/26 04:56:22;;;;;;;8.38;7.42;;;;;;;12.58;100.00;99251.58;2701660;86;21044;-94
2022/09/26 05:00:23;;;;;;;10.13;8.30;;;;;;;12.57;100.00;99253.87;2684280;87;21099;-94
2022/09/26 05:04:24;;;;;;;8.58;7.05;;;;;;;12.61;100.00;99258.39;2716250;85;21070;-95
2022/09/26 05:08:26;;;;;;;10.13;8.28;;;;;;;12.72;100.00;99255.42;2773747;85;21550;-93
2022/09/26 05:12:27;;;;;;;8.68;7.90;;;;;;;12.92;100.00;99255.92;2774094;85;21609;-94
2022/09/26 05:16:28;;;;;;;8.68;7.87;;;;;;;13.03;100.00;99253.93;2767731;85;21074;-93
2022/09/26 05:20:30;;;;;;;8.40;7.65;;;;;;;13.17;100.00;99252.42;2771533;84;21026;-95
2022/09/26 05:29:03;;;;;;;8.58;7.15;;;;;;;13.20;100.00;99248.92;2774730;85;21070;-94
2022/09/26 05:33:04;;;;;;;8.95;5.87;;;;;;;13.30;100.00;99260.76;2756231;85;21225;-95
2022/09/26 05:37:06;;;;;;;7.83;7.00;;;;;;;13.33;100.00;99258.23;2774660;85;21547;-96
2022/09/26 05:41:07;;;;;;;8.98;7.10;;;;;;;13.32;100.00;99260.09;2708955;85;21012;-96
2022/09/26 05:45:09;;;;;;;8.90;7.00;;;;;;;13.39;100.00;99266.41;2769759;85;21090;-96
2022/09/26 05:49:11;;;;;;;9.33;7.33;;;;;;;13.34;100.00;99268.76;2762220;85;21566;-96
2022/09/26 05:53:12;;;;;;;10.18;8.28;;;;;;;13.47;100.00;99265.59;2747735;85;21023;-95
2022/09/26 05:57:14;;;;;;;7.08;6.45;;;;;;;13.50;100.00;99270.59;2774597;85;21079;-96
2022/09/26 06:01:17;;;;;;;9.55;6.87;;;;;;;13.51;100.00;99276.27;2774634;85;21426;-95
2022/09/26 06:05:18;;;;;;;13.13;9.68;;;;;;;13.45;100.00;99275.63;2741165;84;21021;-94
2022/09/26 06:09:19;;;;;;;9.55;7.45;;;;;;;13.40;100.00;99284.10;2693079;86;21001;-95
2022/09/26 06:13:20;;;;;;;9.05;7.92;;;;;;;13.27;100.00;99278.45;2718915;86;21012;-96
2022/09/26 06:17:22;;;;;;;9.83;8.75;;;;;;;13.24;100.00;99284.96;2706708;87;21134;-95
2022/09/26 06:21:24;;;;;;;14.83;8.93;;;;;;;13.21;100.00;99287.97;2710606;87;21108;-94
2022/09/26 06:25:26;;;;;;;10.45;9.43;;;;;;;13.19;100.00;99283.79;2712851;85;21044;-94
2022/09/26 06:29:28;;;;;;;11.73;10.48;;;;;;;13.12;100.00;99292.48;2709569;87;21096;-95
2022/09/26 06:33:29;;;;;;;18.15;11.10;;;;;;;12.99;100.00;99291.64;2713305;84;21020;-95
2022/09/26 06:37:30;;;;;;;12.18;10.15;;;;;;;12.95;100.00;99294.28;2712746;87;21067;-94
2022/09/26 06:41:34;;;;;;;13.88;12.35;;;;;;;12.95;100.00;99288.95;2713288;87;21087;-93
2022/09/26 06:45:35;;;;;;;16.70;12.78;;;;;;;12.96;100.00;99284.45;2711160;87;21037;-96
2022/09/26 06:49:37;;;;;;;17.25;13.28;;;;;;;12.84;100.00;99287.44;2715723;86;21000;-96
2022/09/26 06:53:38;;;;;;;18.90;13.93;;;;;;;12.80;100.00;99286.63;2714851;87;21181;-96
2022/09/26 06:57:42;;;;;;;19.35;13.45;;;;;;;12.81;100.00;99284.28;2713555;87;21609;-96
2022/09/26 07:01:46;;;;;;;16.37;12.37;;;;;;;12.77;100.00;99281.59;2718927;87;21111;-95
2022/09/26 07:05:46;;;;;;;15.65;12.98;;;;;;;12.71;100.00;99281.25;2722634;85;21621;-93
2022/09/26 07:09:47;;;;;;;17.80;14.58;;;;;;;12.67;100.00;99279.92;2730205;85;21138;-96
2022/09/26 07:13:49;;;;;;;16.32;13.30;;;;;;;12.68;100.00;99276.25;2752043;85;21095;-95
2022/09/26 07:17:50;;;;;;;23.20;15.28;;;;;;;12.60;100.00;99272.25;2759857;85;21137;-95
2022/09/26 07:21:51;;;;;;;18.70;14.60;;;;;;;12.69;100.00;99277.92;2762652;85;21083;-94
2022/09/26 07:25:53;;;;;;;22.42;15.58;;;;;;;12.78;100.00;99275.28;2762785;85;21047;-96
2022/09/26 07:29:55;;;;;;;17.65;15.50;;;;;;;12.71;100.00;99280.44;2789028;83;21052;-96
2022/09/26 07:33:56;;;;;;;20.88;16.67;;;;;;;12.86;100.00;99281.43;2771047;84;21082;-96
2022/09/26 07:37:58;;;;;;;20.37;16.52;;;;;;;12.88;100.00;99278.61;2726544;86;21004;-96
2022/09/26 07:42:00;;;;;;;19.17;14.03;;;;;;;12.90;100.00;99279.80;2754009;85;21102;-96
2022/09/26 07:50:22;;;;;;;20.85;15.58;;;;;;;12.86;100.00;99284.09;2762064;85;21020;-95
2022/09/26 07:54:23;;;;;;;18.50;15.23;;;;;;;13.02;100.00;99284.30;2760886;85;21106;-93
2022/09/26 07:58:24;;;;;;;20.30;16.48;;;;;;;13.07;100.00;99288.62;2757947;85;22143;-96
2022/09/26 08:02:32;;;;;;;21.30;16.90;;;;;;;13.05;100.00;99284.78;2758866;85;21982;-95
2022/09/26 08:06:33;;;;;;;18.15;14.55;;;;;;;13.14;100.00;99282.46;2761745;84;21004;-95
2022/09/26 08:10:35;;;;;;;19.32;15.80;;;;;;;13.23;100.00;99284.63;2762475;84;21034;-96
2022/09/26 08:14:36;;;;;;;20.72;16.55;;;;;;;13.35;100.00;99281.11;2721406;86;21051;-95
2022/09/26 08:18:37;;;;;;;23.15;15.40;;;;;;;13.35;100.00;99284.27;2762877;85;21106;-95
2022/09/26 08:22:38;;;;;;;19.73;15.60;;;;;;;13.38;100.00;99295.98;2764210;85;21012;-95
2022/09/26 08:26:40;;;;;;;16.95;12.93;;;;;;;13.44;100.00;99295.32;2763522;86;21146;-96
2022/09/26 08:30:43;;;;;;;19.85;14.40;;;;;;;13.39;100.00;99295.79;2733486;86;21067;-95
2022/09/26 08:34:45;;;;;;;17.92;13.53;;;;;;;13.36;100.00;99299.29;2753812;85;21080;-95
2022/09/26 08:38:49;;;;;;;16.75;14.50;;;;;;;13.24;100.00;99300.98;2759207;86;21463;-94
2022/09/26 08:42:58;;;;;;;20.27;15.30;;;;;;;13.13;100.00;99298.63;2757313;85;21056;-94
2022/09/26 08:47:11;;;;;;;21.27;17.50;;;;;;;13.18;100.00;99300.33;2762390;85;21011;-96
2022/09/26 08:51:33;;;;;;;21.12;17.65;;;;;;;13.21;100.00;99301.81;2673979;86;21086;-96
2022/09/26 08:55:44;;;;;;;22.62;17.50;;;;;;;13.18;100.00;99307.48;2755391;85;21027;-96
2022/09/26 08:59:48;;;;;;;23.12;16.97;;;;;;;13.23;100.00;99298.47;2762863;85;21141;-95
2022/09/26 09:04:17;;;;;;;19.42;15.15;;;;;;;13.26;100.00;99304.31;2706755;87;21110;-94
2022/09/26 09:08:23;;;;;;;17.77;15.50;;;;;;;13.33;100.00;99307.64;2712186;87;21071;-94
2022/09/26 09:12:45;;;;;;;17.23;13.97;;;;;;;13.25;100.00;99307.98;2676632;87;21046;-95
2022/09/26 09:17:22;;;;;;;22.00;17.57;;;;;;;13.28;100.00;99304.98;2714542;86;21091;-95
2022/09/26 09:21:34;;;;;;;18.20;13.40;;;;;;;13.26;100.00;99304.31;2755609;85;21078;-95
2022/09/26 09:26:14;;;;;;;17.20;14.68;;;;;;;13.22;100.00;99296.80;2755790;85;21078;-95
2022/09/26 09:30:47;;;;;;;15.72;12.28;;;;;;;13.17;100.00;99294.66;2753971;85;21051;-96
2022/09/26 09:34:50;;;;;;;16.35;13.53;;;;;;;13.19;100.00;99296.66;2615964;89;21080;-95
2022/09/26 09:38:55;;;;;;;16.20;14.23;;;;;;;13.14;100.00;99301.15;2668901;87;21145;-95
2022/09/26 09:43:08;;;;;;;17.85;12.75;;;;;;;13.17;100.00;99305.33;2665692;87;21153;-95
2022/09/26 09:47:15;;;;;;;14.40;11.18;;;;;;;13.19;100.00;99301.14;2666913;86;21018;-95
2022/09/26 09:51:37;;;;;;;13.68;10.15;;;;;;;12.99;100.00;99306.81;2633900;89;21088;-96
2022/09/26 09:55:52;;;;;;;10.00;7.90;;;;;;;12.87;100.00;99314.31;2651861;87;21057;-95
2022/09/26 10:00:17;;;;;;;9.63;8.05;;;;;;;12.77;100.00;99318.94;2664451;87;21154;-95
2022/09/26 10:04:35;;;;;;;7.20;6.30;;;;;;;12.76;100.00;99318.61;2639087;87;21626;-94
2022/09/26 10:08:41;;;;;;;12.50;8.13;;;;;;;12.78;100.00;99321.98;2666923;86;21076;-94
2022/09/26 10:12:42;;;;;;;11.90;6.83;;;;;;;12.90;100.00;99323.31;2765287;86;21055;-90
2022/09/26 10:17:13;;;;;;;9.85;6.87;;;;;;;13.03;100.00;99308.14;2767622;84;21138;-95
2022/09/26 10:21:17;;;;;;;8.40;5.90;;;;;;;13.11;100.00;99311.32;2698644;87;21063;-95
2022/09/26 10:25:21;;;;;;;5.22;4.28;;;;;;;13.55;100.00;99304.30;2675008;87;21102;-95
2022/09/26 10:29:34;;;;;;;6.00;4.60;;;;;;;14.02;100.00;99301.88;2696026;87;21126;-95
2022/09/26 10:33:36;;;;;;;8.00;5.75;;;;;;;14.32;100.00;99303.41;2696318;87;21082;-96
2022/09/26 10:37:37;;;;;;;6.53;4.85;;;;;;;14.49;100.00;99296.64;2700559;87;21059;-95
2022/09/26 10:41:41;;;;;;;5.90;5.28;;;;;;;14.28;100.00;99295.41;2666352;87;21031;-94
2022/09/26 10:45:42;;;;;;;6.00;4.70;;;;;;;14.45;100.00;99296.67;2700514;87;21103;-96
2022/09/26 10:50:00;;;;;;;5.67;4.58;;;;;;;14.52;100.00;99301.64;2690879;87;21024;-96
2022/09/26 10:54:12;;;;;;;4.95;3.77;;;;;;;14.68;100.00;99293.52;2712156;86;21078;-95
2022/09/26 10:58:28;;;;;;;5.35;4.72;;;;;;;14.56;100.00;99294.95;2766911;86;21555;-95
2022/09/26 11:02:26;;;;;;;5.25;4.58;;;;;;;14.63;100.00;99287.02;2765438;85;21055;-94
2022/09/26 11:06:34;;;;;;;5.25;4.45;;;;;;;14.40;100.00;99284.66;2751114;86;21055;-94
2022/09/26 11:10:40;;;;;;;3.72;3.08;;;;;;;14.28;100.00;99280.70;2723310;86;21024;-95
2022/09/26 11:14:44;;;;;;;4.08;3.67;;;;;;;14.41;100.00;99275.63;2724108;86;21064;-95
2022/09/26 11:19:10;;;;;;;6.42;3.90;;;;;;;14.59;100.00;99274.52;2748292;85;21047;-94
2022/09/26 11:23:51;;;;;;;2.80;2.50;;;;;;;14.78;100.00;99275.09;2748673;86;21051;-96
2022/09/26 11:28:25;;;;;;;4.37;3.55;;;;;;;15.12;100.00;99271.98;2747343;86;21083;-96
2022/09/26 11:32:41;;;;;;;5.15;3.27;;;;;;;15.25;100.00;99278.58;2747900;86;21056;-96
2022/09/26 11:36:53;;;;;;;4.53;3.73;;;;;;;15.49;100.00;99270.80;2747139;86;21103;-95
2022/09/26 11:41:35;;;;;;;3.35;2.77;;;;;;;15.61;100.00;99271.70;2748676;86;21059;-96
2022/09/26 11:45:31;;;;;;;2.80;2.60;;;;;;;15.45;100.00;99268.16;2746753;86;21052;-96
2022/09/26 11:49:50;;;;;;;4.00;3.60;;;;;;;15.23;100.00;99262.68;2707897;86;21056;-94
2022/09/26 11:54:11;;;;;;;3.98;3.12;;;;;;;15.20;100.00;99260.37;2750948;86;21160;-93
2022/09/26 11:58:42;;;;;;;4.12;3.62;;;;;;;15.11;100.00;99254.25;2747202;86;21111;-92
2022/09/26 12:03:03;;;;;;;4.62;3.72;;;;;;;15.28;100.00;99254.92;2750953;86;21056;-93
2022/09/26 12:07:17;;;;;;;4.87;3.20;;;;;;;15.36;100.00;99250.00;2711314;86;21336;-96
2022/09/26 12:11:41;;;;;;;5.78;4.92;;;;;;;15.53;100.00;99246.66;2733812;86;21028;-95
2022/09/26 12:15:57;;;;;;;5.62;5.05;;;;;;;15.48;99.49;99254.39;2708833;87;21027;-95
2022/09/26 12:20:02;;;;;;;;;;;;;;;15.49;99.00;99252.04;2739918;86;21044;-96
2022/09/26 12:24:24;;;;;;;6.80;5.37;;;;;;;15.61;99.79;99251.59;2681795;87;20127;-96
2022/09/26 12:28:40;;;;;;;5.92;5.00;;;;;;;15.74;100.00;99243.75;2681695;87;21122;-96
2022/09/26 12:32:55;;;;;;;;;;;;;;;15.84;99.74;99233.56;2616485;89;21064;-96
2022/09/26 12:37:30;;;;;;;5.15;4.28;;;;;;;16.01;97.28;99229.38;2615198;89;20122;-96
2022/09/26 12:42:00;;;;;;;6.20;5.17;;;;;;;16.29;94.34;99217.92;2583977;90;21083;-95
2022/09/26 12:46:19;;;;;;;5.40;4.92;;;;;;;16.59;96.45;99216.49;2601513;90;21059;-96
2022/09/26 12:50:41;;;;;;;5.28;4.60;;;;;;;16.81;94.34;99209.27;2564786;90;21104;-96
2022/09/26 12:55:03;;;;;;;7.28;5.75;;;;;;;16.85;92.43;99202.98;2600373;90;21061;-95
2022/09/26 12:59:22;;;;;;;6.08;5.35;;;;;;;16.83;92.59;99200.51;2617591;90;21236;-95
2022/09/26 13:03:56;;;;;;;4.50;3.85;;;;;;;16.88;95.54;99206.63;2578389;90;21063;-96
2022/09/26 13:08:24;;;;;;;6.87;5.28;;;;;;;16.95;92.94;99216.08;2598030;88;21120;-96
2022/09/26 13:13:09;;;;;;;5.45;4.30;;;;;;;16.97;91.61;99209.50;2721004;86;21093;-93
2022/09/26 13:17:23;;;;;;;5.03;4.05;;;;;;;17.05;90.61;99202.34;2721720;86;21135;-91
2022/09/26 13:21:45;;;;;;;5.53;4.45;;;;;;;17.04;92.37;99192.13;2695469;86;21011;-91
2022/09/26 13:26:01;;;;;;;4.85;3.58;;;;;;;17.15;89.55;99193.45;2720429;86;21058;-95
2022/09/26 13:30:16;;;;;;;6.30;5.17;;;;;;;17.19;89.38;99189.34;2721895;86;21533;-94
2022/09/26 13:34:36;;;;;;;4.53;4.08;;;;;;;17.27;90.40;99198.58;2718157;86;21054;-91
2022/09/26 13:39:02;;;;;;;4.35;3.98;;;;;;;17.48;93.29;99186.09;2718437;86;21071;-94
2022/09/26 13:43:48;;;;;;;6.42;4.50;;;;;;;17.75;88.74;99180.02;2711030;86;21581;-93
2022/09/26 13:48:33;;;;;;;4.78;4.30;;;;;;;17.73;85.41;99177.55;2708851;86;21560;-95
2022/09/26 13:52:51;;;;;;;5.37;4.47;;;;;;;17.67;85.42;99171.61;2707360;87;21739;-93
2022/09/26 13:56:49;;;;;;;9.80;5.37;;;;;;;17.77;84.49;99165.86;2710126;86;21105;-93
2022/09/26 14:00:56;;;;;;;7.45;5.03;;;;;;;17.87;84.15;99156.06;2713496;86;21094;-92
2022/09/26 14:05:18;;;;;;;6.78;4.90;;;;;;;17.76;83.33;99152.09;2713686;86;21029;-93
2022/09/26 14:09:27;;;;;;;4.40;3.72;;;;;;;17.62;86.80;99151.22;2729522;85;21072;-92
2022/09/26 14:13:36;;;;;;;6.72;3.80;;;;;;;17.74;85.79;99136.68;2724647;86;21009;-92
2022/09/26 14:17:49;;;;;;;14.98;8.88;;;;;;;17.91;84.75;99130.45;2721529;86;21584;-93
2022/09/26 14:22:20;;;;;;;4.97;3.42;;;;;;;18.05;82.85;99125.96;2669209;87;21114;-93
2022/09/26 14:26:31;;;;;;;4.78;2.83;;;;;;;17.95;82.71;99124.97;2671185;87;21082;-93
2022/09/26 14:30:35;;;;;;;4.45;3.58;;;;;;;18.09;83.27;99124.52;2669150;87;21073;-94
2022/09/26 14:34:49;;;;;;;4.37;3.33;;;;;;;18.20;81.90;99115.01;2668292;87;21550;-94
2022/09/26 14:38:53;;;;;;;4.15;2.45;;;;;;;18.07;81.27;99109.91;2672226;87;21137;-92
2022/09/26 14:43:16;;;;;;;2.72;2.25;;;;;;;18.05;83.48;99106.59;2672434;89;21049;-92
2022/09/26 14:47:18;;;;;;;3.80;2.22;;;;;;;18.04;83.45;99102.78;2670591;87;21125;-95
2022/09/26 14:51:30;;;;;;;3.15;2.50;;;;;;;18.07;83.54;99099.14;2667243;87;21081;-95
2022/09/26 14:55:31;;;;;;;3.50;2.45;;;;;;;18.21;81.65;99096.48;2650386;87;21105;-92
2022/09/26 14:59:39;;;;;;;4.35;1.55;;;;;;;18.09;80.33;99092.22;2698319;86;21060;-92
2022/09/26 15:21:33;;;;;;;11.57;8.03;;;;;;;17.83;82.11;99076.32;2783817;83;71595;-94
2022/09/26 15:25:36;;;;;;;7.25;6.03;;;;;;;17.72;83.93;99077.73;2788254;84;21800;-94
2022/09/26 15:29:50;;;;;;;9.63;6.83;;;;;;;17.68;82.68;99065.20;2794460;83;21119;-95
2022/09/26 15:34:03;;;;;;;5.33;3.77;;;;;;;17.71;82.33;99069.36;2798454;83;21068;-95
2022/09/26 15:38:11;;;;;;;4.37;3.83;;;;;;;17.71;83.16;99070.70;2784893;83;21032;-93
2022/09/26 15:51:17;;;;;;;5.65;4.05;;;;;;;17.17;83.66;99059.73;2747982;85;21104;-56
2022/09/26 15:55:23;;;;;;;6.20;3.03;;;;;;;17.07;85.62;99056.56;2767631;85;21028;-57
2022/09/26 15:59:35;;;;;;;3.10;2.52;;;;;;;16.91;85.98;99051.83;2775442;84;20966;-58
2022/09/26 16:04:06;;;;;;;3.72;2.58;;;;;;;16.86;86.27;99055.59;2786207;85;20977;-57
2022/09/26 16:08:15;;;;;;;7.47;6.05;;;;;;;16.83;86.66;99041.22;2774137;84;21009;-57
2022/09/26 16:12:29;;;;;;;5.40;4.92;;;;;;;16.72;86.83;99045.28;2752355;83;21083;-56
2022/09/26 16:16:33;;;;;;;11.28;5.47;;;;;;;16.64;87.54;99056.19;2788927;85;21052;-58
2022/09/26 16:20:34;;;;;;;15.40;12.58;;;;;;;16.58;87.37;99052.42;2768560;85;20990;-57
2022/09/26 16:24:39;;;;;;;13.35;12.05;;;;;;;16.56;86.74;99047.77;2781860;85;20989;-58
2022/09/26 16:28:43;;;;;;;17.17;12.75;;;;;;;16.47;86.64;99046.23;2790260;85;20985;-57
2022/09/26 16:32:45;;;;;;;9.90;7.17;;;;;;;16.24;88.52;99041.93;2779490;84;21056;-58
2022/09/26 16:36:49;;;;;;;4.97;4.22;;;;;;;15.92;90.58;99041.45;2762725;85;21040;-57
2022/09/26 16:40:54;;;;;;;65.72;42.80;;;;;;;15.60;92.80;99044.89;2765620;84;21012;-59
2022/09/26 16:44:56;;;;;;;37.55;25.10;;;;;;;15.54;94.56;99040.62;2792421;84;21040;-56
2022/09/26 16:49:06;;;;;;;14.90;11.28;;;;;;;15.49;94.45;99036.84;2780390;84;21487;-56
2022/09/26 16:53:12;;;;;;;35.90;21.25;;;;;;;15.54;94.16;99043.30;2729705;86;21024;-58
2022/09/26 16:57:32;;;;;;;22.25;12.85;;;;;;;15.55;94.19;99048.98;2749830;86;21057;-56
2022/09/26 17:05:58;;;;;;;6.47;5.70;;;;;;;15.45;94.25;99044.41;2772866;85;21068;-57
2022/09/26 17:10:01;;;;;;;10.55;4.70;;;;;;;15.36;94.03;99044.22;2733155;87;21331;-56
2022/09/26 17:14:04;;;;;;;6.28;3.80;;;;;;;15.22;95.11;99036.00;2738881;86;21051;-56
2022/09/26 17:18:10;;;;;;;3.52;3.25;;;;;;;15.11;96.47;99036.47;2833990;84;20953;-56
2022/09/26 17:22:15;;;;;;;5.85;4.92;;;;;;;14.94;97.45;99031.82;2828507;83;21004;-57
2022/09/26 17:26:20;;;;;;;6.87;4.35;;;;;;;14.80;97.49;99040.19;2830239;82;21242;-56
2022/09/26 17:30:22;;;;;;;6.43;5.83;;;;;;;14.68;97.47;99035.77;2831498;83;21018;-57
2022/09/26 17:34:27;;;;;;;5.35;4.85;;;;;;;14.57;98.13;99035.70;2833292;82;21610;-56
2022/09/26 17:38:47;;;;;;;47.93;29.20;;;;;;;14.48;98.48;99034.11;2813304;84;21055;-57
2022/09/26 17:42:58;;;;;;;47.05;27.90;;;;;;;14.28;100.00;99035.95;2804159;82;21058;-56
2022/09/26 17:46:56;;;;;;;70.15;37.60;;;;;;;13.95;100.00;99035.72;2793815;84;21009;-56
2022/09/26 17:51:01;;;;;;;75.50;44.40;;;;;;;13.82;100.00;99033.65;2757343;83;21026;-56
2022/09/26 17:55:06;;;;;;;74.55;43.38;;;;;;;13.68;100.00;99030.39;2795060;84;20989;-56
2022/09/26 17:59:27;;;;;;;39.53;26.42;;;;;;;13.55;100.00;99027.78;2771776;85;21003;-56
2022/09/26 18:03:33;;;;;;;27.07;17.50;;;;;;;13.30;100.00;99029.75;2803407;85;21016;-60
2022/09/26 18:07:39;;;;;;;18.30;11.75;;;;;;;13.13;100.00;99028.48;2804313;82;29886;-59
2022/09/26 18:11:47;;;;;;;15.72;11.43;;;;;;;12.98;100.00;99023.05;2786016;83;21072;-59
2022/09/26 18:15:51;;;;;;;13.75;10.93;;;;;;;12.88;100.00;99011.73;2776681;83;21071;-58
2022/09/26 18:19:51;;;;;;;9.83;8.85;;;;;;;12.79;100.00;99001.58;2750168;85;21008;-58
2022/09/26 18:24:05;;;;;;;13.08;11.55;;;;;;;12.76;100.00;98999.75;2715328;85;20988;-57
2022/09/26 18:28:09;;;;;;;15.75;10.23;;;;;;;12.64;100.00;99001.47;2726875;86;20989;-58
2022/09/26 18:32:39;;;;;;;14.60;12.58;;;;;;;12.66;100.00;99000.79;2729701;86;21020;-58
2022/09/26 18:36:41;;;;;;;16.42;12.03;;;;;;;12.64;100.00;99004.13;2667124;88;21051;-58
2022/09/26 18:40:50;;;;;;;13.50;11.35;;;;;;;12.58;100.00;99008.83;2666847;88;21003;-58
2022/09/26 18:45:03;;;;;;;22.27;15.80;;;;;;;12.56;100.00;99002.80;2666115;89;20945;-59
2022/09/26 18:49:05;;;;;;;24.65;18.45;;;;;;;12.50;100.00;98996.34;2682435;87;21007;-59
2022/09/26 18:53:13;;;;;;;33.80;25.35;;;;;;;12.51;100.00;99005.16;2737070;86;21036;-57
2022/09/26 19:01:39;;;;;;;23.92;21.33;;;;;;;12.48;100.00;99006.83;2751656;86;20985;-58
2022/09/26 19:05:42;;;;;;;;;;;;;;;12.51;100.00;99015.83;2752965;86;21031;-58
2022/09/26 19:09:43;;;;;;;16.07;14.23;;;;;;;12.49;100.00;99008.02;2749280;86;20114;-58
2022/09/26 19:13:52;;;;;;;19.05;13.18;;;;;;;12.39;100.00;99005.53;2730002;84;21046;-58
2022/09/26 19:17:54;;;;;;;17.02;13.32;;;;;;;12.38;100.00;99007.86;2803057;84;20976;-58
2022/09/26 19:22:09;;;;;;;13.80;12.35;;;;;;;12.35;100.00;99002.02;2777187;84;21055;-58
2022/09/26 19:26:32;;;;;;;13.75;11.48;;;;;;;12.31;100.00;98996.70;2785535;82;20971;-60
2022/09/26 19:30:33;;;;;;;18.98;14.00;;;;;;;12.31;100.00;99001.52;2795501;82;21022;-60
2022/09/26 19:34:34;;;;;;;19.20;16.12;;;;;;;12.31;100.00;98994.86;2796227;83;20971;-60
2022/09/26 19:38:35;;;;;;;17.27;15.28;;;;;;;12.39;100.00;98996.19;2801993;84;20998;-58
2022/09/26 19:42:37;;;;;;;20.37;15.15;;;;;;;12.49;100.00;98984.01;2763689;86;20955;-58
2022/09/26 19:46:39;;;;;;;20.88;13.70;;;;;;;12.52;100.00;98976.14;2776019;84;20987;-58
2022/09/26 19:50:43;;;;;;;17.40;13.62;;;;;;;12.52;100.00;98978.33;2750934;83;21047;-58
2022/09/26 19:54:53;;;;;;;33.23;29.12;;;;;;;12.50;100.00;98976.82;2736744;84;21067;-58
2022/09/26 19:58:56;;;;;;;32.73;28.98;;;;;;;12.50;100.00;98975.48;2716415;83;21032;-58